createdAt,value
2018-08-16T00:00:38.712Z,73.93
2018-08-16T00:01:38.705Z,73.74
2018-08-16T00:02:38.705Z,72.88
2018-08-16T00:03:38.691Z,73.07
2018-08-16T00:04:38.681Z,73.07
2018-08-16T00:05:38.673Z,73.16
2018-08-16T00:06:38.680Z,73.45
2018-08-16T00:07:38.649Z,73.74
2018-08-16T00:08:38.645Z,73.83
2018-08-16T00:09:38.636Z,73.07
2018-08-16T00:10:38.630Z,73.26
2018-08-16T00:11:38.615Z,73.45
2018-08-16T00:12:38.615Z,73.93
2018-08-16T00:13:38.601Z,74.22
2018-08-16T00:14:38.592Z,74.51
2018-08-16T00:15:38.586Z,74.12
2018-08-16T00:16:38.577Z,74.41
2018-08-16T00:17:38.565Z,74.22
2018-08-16T00:18:38.555Z,74.02
2018-08-16T00:19:38.544Z,74.60
2018-08-16T00:20:38.537Z,74.76
2018-08-16T00:21:38.534Z,74.66
2018-08-16T00:22:38.524Z,75.62
2018-08-16T00:23:38.512Z,75.62
2018-08-16T00:24:38.503Z,75.52
2018-08-16T00:25:38.499Z,75.62
2018-08-16T00:26:38.483Z,75.43
2018-08-16T00:27:38.476Z,75.04
2018-08-16T00:28:38.469Z,75.14
2018-08-16T00:29:38.469Z,75.81
2018-08-16T00:30:38.451Z,75.62
2018-08-16T00:31:38.440Z,75.90
2018-08-16T00:32:38.435Z,75.62
2018-08-16T00:33:38.424Z,75.90
2018-08-16T00:34:38.414Z,75.62
2018-08-16T00:35:38.400Z,76.19
2018-08-16T00:36:38.400Z,76.19
2018-08-16T00:37:38.387Z,75.62
2018-08-16T00:38:38.382Z,75.90
2018-08-16T00:39:38.369Z,75.52
2018-08-16T00:40:38.356Z,75.62
2018-08-16T00:41:38.351Z,75.33
2018-08-16T00:42:38.345Z,75.62
2018-08-16T00:43:38.344Z,75.33
2018-08-16T00:44:38.329Z,75.81
2018-08-16T00:45:38.322Z,75.90
2018-08-16T00:46:38.314Z,75.23
2018-08-16T00:47:38.298Z,74.95
2018-08-16T00:48:38.287Z,75.23
2018-08-16T00:49:38.285Z,75.23
2018-08-16T00:50:38.275Z,75.62
2018-08-16T00:51:38.259Z,75.33
2018-08-16T00:52:38.257Z,75.33
2018-08-16T00:53:38.246Z,75.62
2018-08-16T00:54:38.233Z,75.33
2018-08-16T00:55:38.223Z,75.14
2018-08-16T00:56:38.217Z,74.76
2018-08-16T00:57:38.208Z,74.37
2018-08-16T00:58:38.203Z,75.43
2018-08-16T00:59:38.198Z,75.52
2018-08-16T01:00:38.184Z,75.23
2018-08-16T01:01:38.174Z,75.62
2018-08-16T01:02:38.168Z,75.62
2018-08-16T01:03:38.161Z,73.70
2018-08-16T01:04:38.147Z,74.76
2018-08-16T01:05:38.139Z,73.90
2018-08-16T01:06:38.133Z,72.84
2018-08-16T01:07:38.119Z,73.32
2018-08-16T01:08:38.120Z,73.41
2018-08-16T01:09:38.107Z,74.27
2018-08-16T01:10:38.097Z,74.18
2018-08-16T01:11:38.093Z,73.41
2018-08-16T01:12:38.093Z,72.94
2018-08-16T01:13:38.065Z,73.13
2018-08-16T01:14:38.065Z,73.32
2018-08-16T01:15:38.049Z,73.32
2018-08-16T01:16:38.040Z,73.32
2018-08-16T01:17:38.034Z,73.41
2018-08-16T01:18:38.024Z,72.94
2018-08-16T01:19:38.012Z,73.32
2018-08-16T01:20:38.006Z,72.45
2018-08-16T01:21:38.001Z,72.94
2018-08-16T01:22:37.990Z,73.13
2018-08-16T01:23:37.990Z,73.22
2018-08-16T01:24:37.970Z,72.45
2018-08-16T01:25:37.959Z,72.94
2018-08-16T01:26:37.955Z,73.22
2018-08-16T01:27:37.942Z,73.13
2018-08-16T01:28:37.933Z,72.64
2018-08-16T01:29:37.923Z,73.13
2018-08-16T01:30:37.911Z,72.27
2018-08-16T01:31:37.904Z,72.07
2018-08-16T01:32:37.898Z,72.74
2018-08-16T01:33:37.892Z,72.74
2018-08-16T01:34:37.881Z,72.84
2018-08-16T01:35:37.922Z,72.74
2018-08-16T01:36:37.863Z,72.74
2018-08-16T01:37:37.854Z,71.88
2018-08-16T01:38:37.841Z,72.45
2018-08-16T01:39:37.829Z,72.94
2018-08-16T01:40:37.828Z,72.27
2018-08-16T01:41:37.815Z,72.07
2018-08-16T01:42:37.810Z,71.98
2018-08-16T01:43:37.800Z,72.27
2018-08-16T01:44:37.789Z,71.50
2018-08-16T01:45:37.781Z,72.17
2018-08-16T01:46:37.772Z,72.07
2018-08-16T01:47:37.761Z,72.84
2018-08-16T01:48:37.750Z,73.70
2018-08-16T01:49:37.740Z,73.51
2018-08-16T01:50:37.730Z,73.22
2018-08-16T01:51:37.720Z,72.94
2018-08-16T01:52:37.718Z,72.84
2018-08-16T01:53:37.707Z,73.13
2018-08-16T01:54:37.693Z,72.94
2018-08-16T01:55:37.689Z,72.64
2018-08-16T01:56:37.685Z,72.45
2018-08-16T01:57:37.670Z,72.64
2018-08-16T01:58:37.661Z,72.94
2018-08-16T01:59:37.649Z,73.19
2018-08-16T02:00:37.649Z,73.22
2018-08-16T02:01:37.640Z,73.03
2018-08-16T02:02:37.625Z,73.61
2018-08-16T02:03:37.617Z,73.80
2018-08-16T02:04:37.606Z,74.05
2018-08-16T02:05:37.599Z,74.24
2018-08-16T02:06:37.598Z,73.76
2018-08-16T02:07:37.584Z,74.33
2018-08-16T02:08:37.571Z,74.15
2018-08-16T02:09:37.563Z,73.95
2018-08-16T02:10:37.553Z,73.95
2018-08-16T02:11:37.549Z,74.15
2018-08-16T02:12:37.536Z,74.82
2018-08-16T02:13:37.530Z,74.52
2018-08-16T02:14:37.511Z,74.72
2018-08-16T02:15:37.506Z,74.52
2018-08-16T02:16:37.500Z,75.20
2018-08-16T02:17:37.487Z,74.43
2018-08-16T02:18:37.480Z,75.10
2018-08-16T02:19:37.469Z,75.01
2018-08-16T02:20:37.457Z,75.20
2018-08-16T02:21:37.451Z,75.20
2018-08-16T02:22:37.446Z,75.20
2018-08-16T02:23:37.443Z,75.58
2018-08-16T02:24:37.428Z,75.10
2018-08-16T02:25:37.415Z,75.01
2018-08-16T02:26:37.405Z,74.91
2018-08-16T02:27:37.396Z,74.15
2018-08-16T02:28:37.388Z,74.15
2018-08-16T02:29:37.386Z,73.76
2018-08-16T02:30:37.374Z,74.24
2018-08-16T02:31:37.358Z,74.24
2018-08-16T02:32:37.353Z,74.33
2018-08-16T02:33:37.364Z,74.33
2018-08-16T02:34:37.333Z,74.82
2018-08-16T02:35:37.328Z,74.62
2018-08-16T02:36:37.314Z,74.24
2018-08-16T02:37:37.307Z,74.33
2018-08-16T02:38:37.298Z,73.95
2018-08-16T02:39:37.288Z,74.43
2018-08-16T02:40:37.280Z,74.91
2018-08-16T02:41:37.268Z,75.29
2018-08-16T02:42:37.264Z,75.20
2018-08-16T02:43:37.251Z,74.72
2018-08-16T02:44:37.242Z,74.82
2018-08-16T02:45:37.231Z,75.20
2018-08-16T02:46:37.227Z,75.01
2018-08-16T02:47:37.218Z,74.62
2018-08-16T02:48:37.202Z,75.20
2018-08-16T02:49:37.199Z,75.20
2018-08-16T02:50:37.185Z,75.01
2018-08-16T02:51:37.180Z,74.82
2018-08-16T02:52:37.169Z,74.15
2018-08-16T02:53:37.160Z,73.66
2018-08-16T02:54:37.150Z,74.15
2018-08-16T02:55:37.138Z,74.05
2018-08-16T02:56:37.135Z,74.52
2018-08-16T02:57:37.121Z,74.24
2018-08-16T02:58:37.114Z,74.05
2018-08-16T02:59:37.104Z,74.82
2018-08-16T03:00:37.095Z,74.43
2018-08-16T03:01:37.087Z,74.72
2018-08-16T03:02:37.073Z,74.52
2018-08-16T03:03:37.068Z,75.01
2018-08-16T03:04:37.051Z,74.62
2018-08-16T03:05:37.044Z,74.49
2018-08-16T03:06:37.039Z,74.72
2018-08-16T03:07:37.026Z,74.43
2018-08-16T03:08:37.016Z,74.05
2018-08-16T03:09:37.010Z,74.49
2018-08-16T03:10:37.002Z,74.33
2018-08-16T03:11:36.993Z,75.01
2018-08-16T03:12:36.982Z,74.33
2018-08-16T03:13:36.973Z,74.58
2018-08-16T03:14:36.967Z,74.68
2018-08-16T03:15:36.959Z,74.68
2018-08-16T03:16:36.945Z,74.68
2018-08-16T03:17:36.928Z,74.58
2018-08-16T03:18:36.920Z,74.49
2018-08-16T03:19:36.917Z,75.16
2018-08-16T03:20:36.905Z,75.26
2018-08-16T03:21:36.898Z,74.97
2018-08-16T03:22:36.892Z,75.26
2018-08-16T03:23:36.878Z,75.73
2018-08-16T03:24:36.870Z,75.73
2018-08-16T03:25:36.862Z,76.12
2018-08-16T03:26:36.848Z,75.83
2018-08-16T03:27:36.844Z,75.64
2018-08-16T03:28:36.833Z,75.93
2018-08-16T03:29:36.820Z,75.64
2018-08-16T03:30:36.812Z,75.83
2018-08-16T03:31:36.807Z,75.83
2018-08-16T03:32:36.799Z,75.35
2018-08-16T03:33:36.784Z,75.73
2018-08-16T03:34:36.773Z,75.93
2018-08-16T03:35:36.765Z,74.58
2018-08-16T03:36:36.757Z,74.49
2018-08-16T03:37:36.750Z,74.40
2018-08-16T03:38:36.735Z,74.87
2018-08-16T03:39:36.727Z,75.26
2018-08-16T03:40:36.716Z,75.35
2018-08-16T03:41:36.710Z,75.35
2018-08-16T03:42:36.700Z,74.87
2018-08-16T03:43:36.688Z,75.64
2018-08-16T03:44:36.680Z,75.45
2018-08-16T03:45:36.670Z,75.54
2018-08-16T03:46:36.667Z,75.73
2018-08-16T03:47:36.655Z,75.64
2018-08-16T03:48:36.648Z,75.93
2018-08-16T03:49:36.630Z,75.54
2018-08-16T03:50:36.626Z,75.26
2018-08-16T03:51:36.621Z,75.07
2018-08-16T03:52:36.608Z,75.35
2018-08-16T03:53:36.599Z,75.73
2018-08-16T03:54:36.592Z,76.21
2018-08-16T03:55:36.578Z,76.02
2018-08-16T03:56:36.566Z,75.93
2018-08-16T03:57:36.561Z,75.07
2018-08-16T03:58:36.547Z,75.26
2018-08-16T03:59:36.543Z,75.26
2018-08-16T04:00:36.530Z,75.35
2018-08-16T04:01:36.524Z,75.26
2018-08-16T04:02:36.507Z,74.68
2018-08-16T04:03:36.501Z,74.58
2018-08-16T04:04:36.494Z,74.84
2018-08-16T04:05:36.482Z,74.68
2018-08-16T04:06:36.480Z,74.68
2018-08-16T04:07:36.467Z,75.12
2018-08-16T04:08:36.456Z,75.12
2018-08-16T04:09:36.450Z,75.07
2018-08-16T04:10:36.435Z,75.70
2018-08-16T04:11:36.423Z,75.93
2018-08-16T04:12:36.409Z,75.98
2018-08-16T04:13:36.412Z,76.08
2018-08-16T04:14:36.396Z,75.64
2018-08-16T04:15:36.389Z,75.89
2018-08-16T04:16:36.376Z,76.27
2018-08-16T04:17:36.367Z,76.02
2018-08-16T04:18:36.354Z,75.60
2018-08-16T04:19:36.352Z,76.31
2018-08-16T04:20:36.339Z,75.51
2018-08-16T04:21:36.332Z,75.79
2018-08-16T04:22:36.321Z,75.51
2018-08-16T04:23:36.350Z,76.31
2018-08-16T04:24:36.303Z,76.98
2018-08-16T04:25:36.293Z,77.04
2018-08-16T04:26:36.285Z,76.65
2018-08-16T04:27:36.275Z,76.94
2018-08-16T04:28:36.261Z,77.42
2018-08-16T04:29:36.252Z,77.23
2018-08-16T04:30:36.240Z,77.13
2018-08-16T04:31:36.235Z,77.04
2018-08-16T04:32:36.228Z,76.75
2018-08-16T04:33:36.218Z,76.65
2018-08-16T04:34:36.202Z,76.56
2018-08-16T04:35:36.264Z,76.84
2018-08-16T04:36:36.183Z,76.84
2018-08-16T04:37:36.173Z,76.75
2018-08-16T04:38:36.167Z,77.33
2018-08-16T04:39:36.163Z,77.42
2018-08-16T04:40:36.145Z,77.13
2018-08-16T04:41:36.267Z,77.04
2018-08-16T04:42:36.129Z,77.13
2018-08-16T04:43:36.115Z,77.04
2018-08-16T04:44:36.109Z,77.13
2018-08-16T04:45:36.093Z,77.04
2018-08-16T04:46:36.093Z,76.94
2018-08-16T04:47:36.077Z,77.42
2018-08-16T04:48:36.115Z,77.04
2018-08-16T04:49:36.061Z,77.13
2018-08-16T04:50:36.053Z,77.23
2018-08-16T04:51:36.043Z,77.23
2018-08-16T04:52:36.034Z,76.84
2018-08-16T04:53:36.026Z,76.84
2018-08-16T04:54:36.016Z,77.33
2018-08-16T04:55:36.004Z,77.23
2018-08-16T04:56:35.996Z,76.94
2018-08-16T04:57:35.984Z,77.13
2018-08-16T04:58:35.972Z,76.94
2018-08-16T04:59:35.961Z,77.33
2018-08-16T05:00:35.955Z,77.23
2018-08-16T05:01:35.948Z,77.42
2018-08-16T05:02:35.934Z,77.33
2018-08-16T05:03:35.929Z,76.98
2018-08-16T05:04:35.916Z,76.75
2018-08-16T05:05:35.906Z,76.94
2018-08-16T05:06:35.897Z,77.80
2018-08-16T05:07:35.887Z,77.80
2018-08-16T05:08:35.876Z,77.42
2018-08-16T05:09:35.866Z,77.61
2018-08-16T05:10:35.856Z,77.04
2018-08-16T05:11:35.849Z,76.75
2018-08-16T05:12:35.841Z,76.27
2018-08-16T05:13:35.835Z,76.56
2018-08-16T05:14:35.821Z,76.08
2018-08-16T05:15:35.808Z,76.46
2018-08-16T05:16:35.801Z,76.75
2018-08-16T05:17:35.790Z,76.12
2018-08-16T05:18:35.780Z,76.31
2018-08-16T05:19:35.772Z,76.79
2018-08-16T05:20:35.759Z,77.17
2018-08-16T05:21:35.750Z,76.89
2018-08-16T05:22:35.746Z,77.36
2018-08-16T05:23:35.731Z,77.26
2018-08-16T05:24:35.723Z,76.98
2018-08-16T05:25:35.716Z,77.46
2018-08-16T05:26:35.701Z,77.08
2018-08-16T05:27:35.695Z,77.17
2018-08-16T05:28:35.688Z,77.17
2018-08-16T05:29:35.671Z,77.26
2018-08-16T05:30:35.667Z,77.75
2018-08-16T05:31:35.714Z,77.75
2018-08-16T05:32:35.644Z,78.42
2018-08-16T05:33:35.641Z,78.03
2018-08-16T05:34:35.628Z,78.32
2018-08-16T05:35:35.624Z,78.22
2018-08-16T05:36:35.606Z,78.70
2018-08-16T05:37:35.598Z,78.03
2018-08-16T05:38:35.588Z,78.13
2018-08-16T05:39:35.581Z,78.32
2018-08-16T05:40:35.563Z,77.94
2018-08-16T05:41:35.562Z,78.13
2018-08-16T05:42:35.549Z,77.75
2018-08-16T05:43:35.594Z,77.26
2018-08-16T05:44:35.532Z,77.33
2018-08-16T05:45:35.522Z,77.13
2018-08-16T05:46:35.513Z,77.13
2018-08-16T05:47:35.502Z,76.94
2018-08-16T05:48:35.493Z,76.94
2018-08-16T05:49:35.484Z,77.04
2018-08-16T05:50:35.497Z,77.36
2018-08-16T05:51:35.464Z,77.08
2018-08-16T05:52:35.455Z,77.65
2018-08-16T05:53:35.451Z,77.84
2018-08-16T05:54:35.434Z,77.94
2018-08-16T05:55:35.424Z,78.22
2018-08-16T05:56:35.417Z,78.32
2018-08-16T05:57:35.406Z,78.42
2018-08-16T05:58:35.396Z,78.51
2018-08-16T05:59:35.385Z,78.22
2018-08-16T06:00:35.377Z,78.22
2018-08-16T06:01:35.367Z,77.75
2018-08-16T06:02:35.360Z,77.94
2018-08-16T06:03:35.349Z,77.55
2018-08-16T06:04:35.342Z,77.75
2018-08-16T06:05:35.335Z,78.22
2018-08-16T06:06:35.325Z,78.80
2018-08-16T06:07:35.332Z,78.61
2018-08-16T06:08:35.304Z,78.42
2018-08-16T06:09:35.293Z,78.42
2018-08-16T06:10:35.283Z,78.99
2018-08-16T06:11:35.272Z,79.18
2018-08-16T06:12:35.275Z,79.08
2018-08-16T06:13:35.257Z,78.89
2018-08-16T06:14:35.247Z,79.28
2018-08-16T06:15:35.444Z,79.08
2018-08-16T06:16:35.222Z,78.89
2018-08-16T06:17:35.217Z,78.51
2018-08-16T06:18:35.210Z,78.99
2018-08-16T06:19:35.198Z,79.08
2018-08-16T06:20:35.195Z,78.99
2018-08-16T06:21:35.184Z,79.08
2018-08-16T06:22:35.167Z,78.99
2018-08-16T06:23:35.161Z,78.99
2018-08-16T06:24:35.151Z,78.99
2018-08-16T06:25:35.137Z,78.99
2018-08-16T06:26:35.138Z,78.80
2018-08-16T06:27:35.119Z,78.51
2018-08-16T06:28:35.111Z,78.07
2018-08-16T06:29:35.103Z,77.50
2018-08-16T06:30:35.093Z,77.69
2018-08-16T06:31:35.134Z,77.88
2018-08-16T06:32:35.103Z,77.78
2018-08-16T06:33:35.068Z,77.63
2018-08-16T06:34:35.053Z,77.15
2018-08-16T06:35:35.049Z,76.48
2018-08-16T06:36:35.040Z,76.00
2018-08-16T06:37:35.030Z,76.10
2018-08-16T06:38:35.012Z,75.75
2018-08-16T06:39:35.004Z,75.75
2018-08-16T06:40:35.002Z,75.46
2018-08-16T06:41:34.992Z,74.69
2018-08-16T06:42:34.979Z,74.60
2018-08-16T06:43:34.970Z,74.02
2018-08-16T06:44:34.957Z,73.74
2018-08-16T06:45:34.950Z,73.83
2018-08-16T06:46:34.943Z,73.49
2018-08-16T06:47:34.936Z,73.20
2018-08-16T06:48:34.928Z,73.20
2018-08-16T06:49:34.919Z,73.20
2018-08-16T06:50:34.907Z,73.00
2018-08-16T06:51:34.895Z,73.10
2018-08-16T06:52:34.953Z,73.24
2018-08-16T06:53:34.885Z,73.10
2018-08-16T06:54:34.871Z,73.14
2018-08-16T06:55:34.861Z,72.75
2018-08-16T06:56:34.855Z,72.37
2018-08-16T06:57:34.847Z,72.47
2018-08-16T06:58:34.839Z,72.08
2018-08-16T06:59:34.826Z,72.08
2018-08-16T07:00:34.825Z,71.61
2018-08-16T07:01:34.812Z,71.70
2018-08-16T07:02:34.806Z,71.55
2018-08-16T07:03:34.797Z,71.25
2018-08-16T07:04:34.783Z,71.45
2018-08-16T07:05:34.774Z,71.45
2018-08-16T07:06:34.766Z,71.55
2018-08-16T07:07:34.757Z,71.83
2018-08-16T07:08:34.751Z,71.93
2018-08-16T07:09:34.743Z,71.55
2018-08-16T07:10:34.730Z,71.73
2018-08-16T07:11:34.721Z,71.58
2018-08-16T07:12:34.816Z,72.06
2018-08-16T07:13:34.707Z,71.87
2018-08-16T07:14:34.699Z,71.67
2018-08-16T07:15:34.693Z,71.48
2018-08-16T07:16:34.684Z,71.48
2018-08-16T07:17:34.678Z,71.48
2018-08-16T07:18:34.691Z,71.10
2018-08-16T07:19:34.654Z,70.81
2018-08-16T07:20:34.645Z,70.65
2018-08-16T07:21:34.643Z,70.56
2018-08-16T07:22:34.627Z,69.89
2018-08-16T07:23:34.624Z,69.98
2018-08-16T07:24:34.697Z,70.17
2018-08-16T07:25:34.606Z,69.98
2018-08-16T07:26:34.598Z,69.60
2018-08-16T07:27:34.592Z,69.79
2018-08-16T07:28:34.584Z,69.69
2018-08-16T07:29:34.578Z,70.07
2018-08-16T07:30:34.568Z,69.92
2018-08-16T07:31:34.555Z,68.86
2018-08-16T07:32:34.551Z,69.06
2018-08-16T07:33:34.543Z,68.76
2018-08-16T07:34:34.533Z,69.15
2018-08-16T07:35:34.530Z,68.38
2018-08-16T07:36:34.516Z,68.38
2018-08-16T07:37:34.508Z,68.09
2018-08-16T07:38:34.500Z,68.22
2018-08-16T07:39:34.495Z,68.22
2018-08-16T07:40:34.489Z,68.13
2018-08-16T07:41:34.477Z,67.45
2018-08-16T07:42:34.471Z,67.74
2018-08-16T07:43:34.466Z,67.45
2018-08-16T07:44:34.453Z,68.41
2018-08-16T07:45:34.471Z,68.16
2018-08-16T07:46:34.442Z,67.87
2018-08-16T07:47:34.433Z,66.91
2018-08-16T07:48:34.428Z,67.29
2018-08-16T07:49:34.492Z,66.71
2018-08-16T07:50:34.462Z,66.81
2018-08-16T07:51:34.627Z,66.81
2018-08-16T07:52:34.394Z,66.42
2018-08-16T07:53:34.385Z,66.14
2018-08-16T07:54:34.380Z,66.04
2018-08-16T07:55:34.370Z,65.17
2018-08-16T07:56:34.364Z,65.66
2018-08-16T07:57:34.358Z,65.94
2018-08-16T07:58:34.461Z,66.27
2018-08-16T07:59:34.341Z,65.59
2018-08-16T08:00:34.333Z,65.11
2018-08-16T08:01:34.328Z,65.30
2018-08-16T08:02:34.320Z,63.67
2018-08-16T08:03:34.319Z,64.43
2018-08-16T08:04:34.299Z,64.25
2018-08-16T08:05:34.299Z,62.90
2018-08-16T08:06:34.291Z,61.96
2018-08-16T08:07:34.283Z,61.87
2018-08-16T08:08:34.276Z,62.15
2018-08-16T08:09:34.402Z,61.58
2018-08-16T08:10:34.261Z,61.48
2018-08-16T08:11:34.256Z,61.87
2018-08-16T08:12:34.246Z,62.18
2018-08-16T08:13:34.242Z,61.71
2018-08-16T08:14:34.238Z,62.18
2018-08-16T08:15:34.283Z,60.83
2018-08-16T08:16:34.222Z,62.66
2018-08-16T08:17:34.210Z,61.80
2018-08-16T08:18:34.207Z,59.58
2018-08-16T08:19:34.199Z,60.45
2018-08-16T08:20:34.191Z,59.78
2018-08-16T08:21:34.188Z,61.16
2018-08-16T08:22:34.176Z,59.03
2018-08-16T08:23:34.171Z,60.00
2018-08-16T08:24:34.166Z,60.48
2018-08-16T08:25:34.212Z,59.13
2018-08-16T08:26:34.150Z,59.71
2018-08-16T08:27:34.142Z,59.80
2018-08-16T08:28:34.140Z,59.90
2018-08-16T08:29:34.136Z,60.00
2018-08-16T08:30:34.123Z,59.32
2018-08-16T08:31:34.176Z,60.28
2018-08-16T08:32:34.112Z,59.61
2018-08-16T08:33:34.104Z,60.10
2018-08-16T08:34:34.100Z,60.58
2018-08-16T08:35:34.088Z,61.44
2018-08-16T08:36:34.082Z,60.68
2018-08-16T08:37:34.080Z,60.71
2018-08-16T08:38:34.083Z,59.83
2018-08-16T08:39:34.064Z,59.35
2018-08-16T08:40:34.055Z,58.39
2018-08-16T08:41:34.055Z,58.48
2018-08-16T08:42:34.045Z,59.83
2018-08-16T08:43:34.038Z,59.16
2018-08-16T08:44:34.031Z,58.07
2018-08-16T08:45:34.026Z,57.42
2018-08-16T08:46:34.026Z,56.16
2018-08-16T08:47:34.018Z,56.46
2018-08-16T08:48:34.012Z,59.74
2018-08-16T08:49:34.011Z,59.35
2018-08-16T08:50:33.996Z,57.81
2018-08-16T08:51:33.987Z,57.04
2018-08-16T08:52:33.987Z,54.91
2018-08-16T08:53:33.981Z,53.47
2018-08-16T08:54:33.972Z,53.95
2018-08-16T08:55:33.964Z,53.85
2018-08-16T08:56:33.962Z,56.16
2018-08-16T08:57:33.950Z,56.56
2018-08-16T08:58:33.946Z,57.14
2018-08-16T08:59:33.937Z,58.32
2018-08-16T09:00:33.935Z,57.06
2018-08-16T09:01:33.928Z,57.26
2018-08-16T09:02:33.927Z,55.52
2018-08-16T09:03:33.915Z,56.10
2018-08-16T09:04:33.910Z,55.33
2018-08-16T09:05:33.901Z,53.59
2018-08-16T09:06:33.898Z,53.01
2018-08-16T09:07:33.894Z,53.01
2018-08-16T09:08:33.882Z,52.23
2018-08-16T09:09:33.883Z,51.73
2018-08-16T09:10:33.870Z,52.14
2018-08-16T09:11:33.860Z,52.50
2018-08-16T09:12:33.861Z,52.11
2018-08-16T09:13:33.850Z,52.31
2018-08-16T09:14:33.853Z,52.11
2018-08-16T09:15:33.839Z,52.01
2018-08-16T09:16:33.835Z,51.73
2018-08-16T09:17:33.831Z,51.82
2018-08-16T09:18:33.826Z,53.08
2018-08-16T09:19:33.814Z,53.37
2018-08-16T09:20:33.805Z,53.20
2018-08-16T09:21:33.806Z,52.33
2018-08-16T09:22:33.804Z,51.46
2018-08-16T09:23:33.795Z,50.89
2018-08-16T09:24:33.786Z,50.98
2018-08-16T09:25:33.784Z,52.04
2018-08-16T09:26:33.776Z,52.81
2018-08-16T09:27:33.766Z,53.20
2018-08-16T09:28:33.763Z,51.95
2018-08-16T09:29:33.760Z,53.01
2018-08-16T09:30:33.750Z,53.11
2018-08-16T09:31:33.786Z,50.40
2018-08-16T09:32:33.739Z,49.82
2018-08-16T09:33:33.735Z,49.92
2018-08-16T09:34:33.733Z,52.17
2018-08-16T09:35:33.722Z,52.36
2018-08-16T09:36:33.713Z,50.91
2018-08-16T09:37:33.713Z,50.04
2018-08-16T09:38:33.698Z,51.59
2018-08-16T09:39:33.802Z,49.95
2018-08-16T09:40:33.690Z,51.49
2018-08-16T09:41:33.709Z,51.87
2018-08-16T09:42:33.681Z,50.43
2018-08-16T09:43:33.672Z,50.71
2018-08-16T09:44:33.665Z,50.43
2018-08-16T09:45:33.702Z,51.01
2018-08-16T09:46:33.665Z,51.10
2018-08-16T09:47:33.651Z,48.88
2018-08-16T09:48:33.653Z,47.53
2018-08-16T09:49:33.639Z,48.21
2018-08-16T09:50:33.637Z,50.45
2018-08-16T09:51:33.658Z,52.00
2018-08-16T09:52:33.625Z,52.19
2018-08-16T09:53:33.619Z,50.93
2018-08-16T09:54:33.617Z,50.55
2018-08-16T09:55:33.606Z,50.16
2018-08-16T09:56:33.602Z,49.29
2018-08-16T09:57:33.596Z,49.68
2018-08-16T09:58:33.590Z,50.07
2018-08-16T09:59:33.585Z,50.45
2018-08-16T10:00:33.581Z,50.26
2018-08-16T10:01:33.581Z,50.55
2018-08-16T10:02:33.569Z,49.00
2018-08-16T10:03:33.562Z,48.93
2018-08-16T10:04:33.550Z,48.83
2018-08-16T10:05:33.548Z,49.90
2018-08-16T10:06:33.544Z,50.38
2018-08-16T10:07:33.541Z,48.74
2018-08-16T10:08:33.536Z,47.77
2018-08-16T10:09:33.532Z,48.25
2018-08-16T10:10:33.520Z,49.32
2018-08-16T10:11:33.515Z,48.64
2018-08-16T10:12:33.511Z,47.48
2018-08-16T10:13:33.556Z,47.67
2018-08-16T10:14:33.503Z,47.09
2018-08-16T10:15:33.495Z,47.77
2018-08-16T10:16:33.488Z,47.19
2018-08-16T10:17:33.485Z,46.42
2018-08-16T10:18:33.479Z,47.00
2018-08-16T10:19:33.472Z,48.25
2018-08-16T10:20:33.468Z,48.74
2018-08-16T10:21:33.462Z,47.48
2018-08-16T10:22:33.454Z,48.27
2018-08-16T10:23:33.452Z,49.05
2018-08-16T10:24:33.445Z,47.31
2018-08-16T10:25:33.444Z,46.92
2018-08-16T10:26:33.441Z,46.05
2018-08-16T10:27:33.437Z,45.57
2018-08-16T10:28:33.426Z,44.70
2018-08-16T10:29:33.426Z,44.96
2018-08-16T10:30:33.413Z,45.86
2018-08-16T10:31:33.409Z,45.08
2018-08-16T10:32:33.411Z,45.47
2018-08-16T10:33:33.400Z,45.18
2018-08-16T10:34:33.396Z,44.40
2018-08-16T10:35:33.382Z,44.02
2018-08-16T10:36:33.386Z,46.15
2018-08-16T10:37:33.382Z,45.20
2018-08-16T10:38:33.375Z,44.40
2018-08-16T10:39:33.366Z,44.72
2018-08-16T10:40:33.360Z,44.43
2018-08-16T10:41:33.357Z,44.43
2018-08-16T10:42:33.355Z,42.30
2018-08-16T10:43:33.349Z,42.49
2018-08-16T10:44:33.459Z,44.91
2018-08-16T10:45:33.341Z,43.75
2018-08-16T10:46:33.335Z,42.20
2018-08-16T10:47:33.323Z,42.13
2018-08-16T10:48:33.318Z,42.03
2018-08-16T10:49:33.317Z,41.45
2018-08-16T10:50:33.307Z,40.38
2018-08-16T10:51:33.306Z,40.48
2018-08-16T10:52:33.300Z,39.70
2018-08-16T10:53:33.296Z,38.93
2018-08-16T10:54:33.292Z,38.45
2018-08-16T10:55:33.282Z,37.67
2018-08-16T10:56:33.284Z,37.87
2018-08-16T10:57:33.281Z,35.83
2018-08-16T10:58:33.279Z,36.60
2018-08-16T10:59:33.267Z,36.41
2018-08-16T11:00:33.267Z,36.51
2018-08-16T11:01:33.258Z,34.38
2018-08-16T11:02:33.252Z,33.51
2018-08-16T11:03:33.248Z,33.99
2018-08-16T11:04:33.251Z,33.89
2018-08-16T11:05:33.236Z,33.60
2018-08-16T11:06:33.234Z,32.64
2018-08-16T11:07:33.286Z,33.22
2018-08-16T11:08:33.223Z,33.42
2018-08-16T11:09:33.218Z,34.78
2018-08-16T11:10:33.212Z,35.75
2018-08-16T11:11:33.205Z,37.11
2018-08-16T11:12:33.199Z,37.40
2018-08-16T11:13:33.195Z,37.21
2018-08-16T11:14:33.190Z,36.82
2018-08-16T11:15:33.186Z,38.46
2018-08-16T11:16:33.182Z,38.37
2018-08-16T11:17:33.180Z,37.88
2018-08-16T11:18:33.179Z,37.90
2018-08-16T11:19:33.166Z,38.78
2018-08-16T11:20:33.172Z,38.19
2018-08-16T11:21:33.158Z,38.48
2018-08-16T11:22:33.155Z,39.16
2018-08-16T11:23:33.152Z,40.13
2018-08-16T11:24:33.147Z,40.13
2018-08-16T11:25:33.142Z,39.16
2018-08-16T11:26:33.137Z,39.36
2018-08-16T11:27:33.133Z,39.16
2018-08-16T11:28:33.124Z,40.03
2018-08-16T11:29:33.132Z,41.02
2018-08-16T11:30:33.120Z,40.73
2018-08-16T11:31:33.116Z,40.05
2018-08-16T11:32:33.109Z,39.08
2018-08-16T11:33:33.151Z,39.84
2018-08-16T11:34:33.105Z,40.44
2018-08-16T11:35:33.097Z,40.25
2018-08-16T11:36:33.093Z,39.37
2018-08-16T11:37:33.090Z,39.18
2018-08-16T11:38:33.084Z,38.99
2018-08-16T11:39:33.079Z,39.28
2018-08-16T11:40:33.083Z,39.67
2018-08-16T11:41:33.073Z,39.47
2018-08-16T11:42:33.068Z,39.28
2018-08-16T11:43:33.062Z,38.99
2018-08-16T11:44:33.060Z,38.50
2018-08-16T11:45:33.050Z,38.60
2018-08-16T11:46:33.067Z,38.40
2018-08-16T11:47:33.043Z,37.53
2018-08-16T11:48:33.045Z,37.55
2018-08-16T11:49:33.037Z,37.92
2018-08-16T11:50:33.033Z,37.55
2018-08-16T11:51:33.027Z,37.45
2018-08-16T11:52:33.025Z,39.98
2018-08-16T11:53:33.019Z,38.13
2018-08-16T11:54:33.016Z,36.97
2018-08-16T11:55:33.017Z,36.99
2018-08-16T11:56:33.006Z,36.87
2018-08-16T11:57:33.000Z,36.99
2018-08-16T11:58:33.004Z,36.11
2018-08-16T11:59:32.996Z,36.89
2018-08-16T12:00:32.990Z,35.82
2018-08-16T12:01:32.988Z,36.21
2018-08-16T12:02:32.983Z,35.92
2018-08-16T12:03:32.982Z,36.02
2018-08-16T12:04:32.979Z,36.89
2018-08-16T12:05:32.972Z,36.69
2018-08-16T12:06:32.967Z,36.40
2018-08-16T12:07:32.958Z,36.21
2018-08-16T12:08:32.958Z,37.37
2018-08-16T12:09:32.957Z,36.79
2018-08-16T12:10:32.955Z,35.74
2018-08-16T12:11:32.949Z,34.75
2018-08-16T12:12:32.941Z,35.06
2018-08-16T12:13:32.943Z,35.74
2018-08-16T12:14:32.962Z,34.87
2018-08-16T12:15:32.933Z,33.99
2018-08-16T12:16:32.925Z,33.80
2018-08-16T12:17:32.927Z,33.90
2018-08-16T12:18:32.919Z,34.97
2018-08-16T12:19:32.914Z,34.48
2018-08-16T12:20:32.910Z,34.58
2018-08-16T12:21:32.906Z,34.87
2018-08-16T12:22:32.910Z,33.41
2018-08-16T12:23:32.898Z,34.38
2018-08-16T12:24:32.906Z,33.70
2018-08-16T12:25:32.893Z,33.12
2018-08-16T12:26:32.891Z,33.61
2018-08-16T12:27:32.891Z,34.58
2018-08-16T12:28:32.883Z,33.70
2018-08-16T12:29:32.881Z,32.54
2018-08-16T12:30:32.876Z,32.15
2018-08-16T12:31:32.872Z,31.47
2018-08-16T12:32:32.869Z,31.48
2018-08-16T12:33:32.865Z,31.68
2018-08-16T12:34:32.860Z,31.29
2018-08-16T12:35:32.860Z,32.07
2018-08-16T12:36:32.855Z,32.07
2018-08-16T12:37:32.850Z,31.87
2018-08-16T12:38:32.848Z,32.07
2018-08-16T12:39:32.840Z,32.35
2018-08-16T12:40:32.848Z,31.68
2018-08-16T12:41:32.838Z,32.35
2018-08-16T12:42:32.837Z,32.75
2018-08-16T12:43:32.836Z,33.43
2018-08-16T12:44:32.829Z,31.37
2018-08-16T12:45:32.825Z,31.58
2018-08-16T12:46:32.819Z,31.85
2018-08-16T12:47:32.874Z,33.41
2018-08-16T12:48:32.813Z,32.84
2018-08-16T12:49:32.811Z,34.30
2018-08-16T12:50:32.808Z,33.81
2018-08-16T12:51:32.802Z,33.64
2018-08-16T12:52:32.800Z,35.19